createdAt,value
2022-09-18T00:00:52.547Z,91.85
2022-09-18T00:01:52.559Z,91.95
2022-09-18T00:02:52.573Z,92.05
2022-09-18T00:03:52.510Z,92.15
2022-09-18T00:04:52.971Z,92.25
2022-09-18T00:05:52.492Z,92.36
2022-09-18T00:06:52.463Z,92.56
2022-09-18T00:07:52.464Z,92.77
2022-09-18T00:08:52.459Z,92.87
2022-09-18T00:09:52.444Z,92.97
2022-09-18T00:10:52.466Z,93.07
2022-09-18T00:11:52.868Z,93.18
2022-09-18T00:12:52.400Z,93.28
2022-09-18T00:13:52.401Z,93.38
2022-09-18T00:14:52.412Z,93.48
2022-09-18T00:15:52.423Z,93.59
2022-09-18T00:16:52.408Z,93.59
2022-09-18T00:17:52.369Z,93.59
2022-09-18T00:18:52.705Z,93.69
2022-09-18T00:19:52.339Z,93.79
2022-09-18T00:20:52.323Z,93.69
2022-09-18T00:21:52.316Z,93.79
2022-09-18T00:22:52.328Z,93.79
2022-09-18T00:23:52.282Z,93.89
2022-09-18T00:24:52.270Z,93.89
2022-09-18T00:25:52.577Z,93.99
2022-09-18T00:26:52.245Z,94.10
2022-09-18T00:27:52.240Z,94.10
2022-09-18T00:28:52.250Z,94.20
2022-09-18T00:29:52.237Z,94.20
2022-09-18T00:30:52.244Z,94.30
2022-09-18T00:31:52.250Z,94.40
2022-09-18T00:32:52.484Z,94.51
2022-09-18T00:33:52.178Z,94.60
2022-09-18T00:34:52.215Z,94.60
2022-09-18T00:35:52.158Z,94.71
2022-09-18T00:36:52.142Z,94.81
2022-09-18T00:37:52.139Z,94.81
2022-09-18T00:38:52.113Z,94.81
2022-09-18T00:39:52.476Z,94.81
2022-09-18T00:40:52.131Z,94.81
2022-09-18T00:41:52.101Z,94.92
2022-09-18T00:42:52.085Z,94.92
2022-09-18T00:43:52.102Z,94.92
2022-09-18T00:44:52.066Z,95.02
2022-09-18T00:45:52.061Z,95.02
2022-09-18T00:46:52.456Z,95.02
2022-09-18T00:47:52.034Z,95.12
2022-09-18T00:48:52.005Z,95.12
2022-09-18T00:49:52.011Z,95.02
2022-09-18T00:50:52.003Z,95.12
2022-09-18T00:51:52.006Z,95.12
2022-09-18T00:52:52.023Z,95.12
2022-09-18T00:53:52.259Z,95.12
2022-09-18T00:54:51.947Z,95.22
2022-09-18T00:55:51.942Z,95.22
2022-09-18T00:56:51.924Z,95.22
2022-09-18T00:57:51.932Z,95.22
2022-09-18T00:58:51.968Z,95.32
2022-09-18T00:59:51.923Z,95.32
2022-09-18T01:00:52.183Z,95.32
2022-09-18T01:01:51.971Z,95.32
2022-09-18T01:02:51.850Z,95.32
2022-09-18T01:03:51.851Z,95.32
2022-09-18T01:04:51.862Z,95.32
2022-09-18T01:05:51.829Z,95.32
2022-09-18T01:06:51.813Z,95.32
2022-09-18T01:07:52.101Z,95.32
2022-09-18T01:08:51.801Z,95.32
2022-09-18T01:09:51.796Z,95.43
2022-09-18T01:10:51.796Z,95.43
2022-09-18T01:11:51.776Z,95.43
2022-09-18T01:12:51.747Z,95.43
2022-09-18T01:13:51.753Z,95.43
2022-09-18T01:14:52.007Z,95.53
2022-09-18T01:15:51.759Z,95.53
2022-09-18T01:16:51.749Z,95.53
2022-09-18T01:17:51.697Z,95.63
2022-09-18T01:18:51.701Z,95.73
2022-09-18T01:19:51.678Z,95.73
2022-09-18T01:20:51.664Z,95.84
2022-09-18T01:21:51.940Z,95.84
2022-09-18T01:22:51.670Z,95.84
2022-09-18T01:23:51.637Z,95.84
2022-09-18T01:24:51.628Z,95.84
2022-09-18T01:25:51.633Z,95.94
2022-09-18T01:26:51.592Z,96.04
2022-09-18T01:27:51.604Z,96.04
2022-09-18T01:28:51.887Z,96.14
2022-09-18T01:29:51.583Z,96.25
2022-09-18T01:30:51.567Z,96.29
2022-09-18T01:31:51.646Z,96.39
2022-09-18T01:32:51.532Z,96.49
2022-09-18T01:33:51.547Z,96.49
2022-09-18T01:34:51.544Z,96.59
2022-09-18T01:35:51.809Z,96.70
2022-09-18T01:36:51.494Z,96.70
2022-09-18T01:37:51.487Z,96.80
2022-09-18T01:38:51.474Z,96.91
2022-09-18T01:39:51.501Z,96.91
2022-09-18T01:40:51.478Z,96.91
2022-09-18T01:41:51.452Z,97.00
2022-09-18T01:42:51.419Z,97.00
2022-09-18T01:43:51.419Z,97.00
2022-09-18T01:44:51.410Z,97.00
2022-09-18T01:45:51.403Z,97.00
2022-09-18T01:46:51.492Z,97.00
2022-09-18T01:47:51.386Z,97.11
2022-09-18T01:48:51.362Z,97.00
2022-09-18T01:49:51.353Z,96.91
2022-09-18T01:50:51.334Z,96.70
2022-09-18T01:51:51.340Z,96.70
2022-09-18T01:52:51.355Z,96.59
2022-09-18T01:53:51.313Z,96.49
2022-09-18T01:54:51.572Z,96.39
2022-09-18T01:55:51.293Z,96.39
2022-09-18T01:56:51.280Z,96.19
2022-09-18T01:57:51.266Z,96.08
2022-09-18T01:58:51.298Z,95.94
2022-09-18T01:59:51.255Z,96.04
2022-09-18T02:00:51.258Z,95.94
2022-09-18T02:01:51.384Z,95.94
2022-09-18T02:02:51.303Z,96.04
2022-09-18T02:03:51.264Z,95.84
2022-09-18T02:04:51.241Z,95.84
2022-09-18T02:05:51.180Z,95.73
2022-09-18T02:06:51.447Z,95.73
2022-09-18T02:07:51.162Z,95.73
2022-09-18T02:08:51.157Z,95.63
2022-09-18T02:09:51.143Z,95.53
2022-09-18T02:10:51.153Z,95.53
2022-09-18T02:11:51.136Z,95.43
2022-09-18T02:12:51.102Z,95.53
2022-09-18T02:13:51.379Z,95.43
2022-09-18T02:14:51.089Z,95.43
2022-09-18T02:15:51.115Z,95.43
2022-09-18T02:16:51.105Z,95.32
2022-09-18T02:17:51.080Z,95.22
2022-09-18T02:18:51.130Z,95.32
2022-09-18T02:19:51.027Z,95.32
2022-09-18T02:20:51.320Z,95.32
2022-09-18T02:21:51.003Z,95.32
2022-09-18T02:22:51.038Z,95.32
2022-09-18T02:23:50.976Z,95.32
2022-09-18T02:24:50.987Z,95.22
2022-09-18T02:25:50.959Z,95.32
2022-09-18T02:26:50.981Z,95.32
2022-09-18T02:27:51.229Z,95.22
2022-09-18T02:28:50.977Z,95.22
2022-09-18T02:29:50.915Z,95.22
2022-09-18T02:30:50.915Z,95.02
2022-09-18T02:31:51.020Z,95.12
2022-09-18T02:32:50.899Z,95.12
2022-09-18T02:33:50.901Z,95.12
2022-09-18T02:34:51.183Z,95.22
2022-09-18T02:35:50.882Z,95.22
2022-09-18T02:36:50.848Z,95.12
2022-09-18T02:37:50.833Z,95.22
2022-09-18T02:38:50.830Z,95.63
2022-09-18T02:39:50.820Z,95.63
2022-09-18T02:40:50.855Z,95.43
2022-09-18T02:41:51.087Z,95.63
2022-09-18T02:42:50.782Z,95.63
2022-09-18T02:43:50.760Z,95.53
2022-09-18T02:44:50.759Z,95.53
2022-09-18T02:45:50.738Z,95.63
2022-09-18T02:46:50.866Z,95.73
2022-09-18T02:47:50.727Z,95.63
2022-09-18T02:48:50.779Z,95.43
2022-09-18T02:49:50.701Z,95.63
2022-09-18T02:50:50.700Z,95.73
2022-09-18T02:51:50.675Z,95.84
2022-09-18T02:52:50.725Z,95.84
2022-09-18T02:53:50.698Z,95.84
2022-09-18T02:54:50.950Z,95.94
2022-09-18T02:55:50.637Z,95.94
2022-09-18T02:56:50.648Z,96.04
2022-09-18T02:57:50.635Z,96.04
2022-09-18T02:58:50.637Z,95.73
2022-09-18T02:59:50.646Z,95.73
2022-09-18T03:00:50.589Z,95.84
2022-09-18T03:01:50.638Z,95.94
2022-09-18T03:02:50.758Z,95.94
2022-09-18T03:03:50.568Z,95.84
2022-09-18T03:04:50.613Z,95.73
2022-09-18T03:05:50.526Z,95.73
2022-09-18T03:06:50.532Z,95.73
2022-09-18T03:07:50.785Z,95.73
2022-09-18T03:08:50.510Z,95.73
2022-09-18T03:09:50.481Z,95.53
2022-09-18T03:10:50.528Z,95.63
2022-09-18T03:11:50.477Z,95.53
2022-09-18T03:12:50.498Z,95.53
2022-09-18T03:13:50.439Z,95.53
2022-09-18T03:14:50.746Z,95.53
2022-09-18T03:15:50.439Z,95.53
2022-09-18T03:16:50.463Z,95.43
2022-09-18T03:17:50.402Z,95.53
2022-09-18T03:18:50.444Z,95.63
2022-09-18T03:19:50.381Z,95.53
2022-09-18T03:20:50.372Z,95.53
2022-09-18T03:21:50.360Z,95.73
2022-09-18T03:22:50.386Z,95.84
2022-09-18T03:23:50.338Z,95.84
2022-09-18T03:24:50.338Z,95.84
2022-09-18T03:25:50.322Z,95.84
2022-09-18T03:26:50.317Z,95.94
2022-09-18T03:27:50.585Z,96.04
2022-09-18T03:28:50.314Z,96.14
2022-09-18T03:29:50.283Z,96.25
2022-09-18T03:30:50.278Z,96.45
2022-09-18T03:31:50.370Z,96.55
2022-09-18T03:32:50.284Z,96.75
2022-09-18T03:33:50.262Z,96.86
2022-09-18T03:34:50.257Z,97.06
2022-09-18T03:35:50.222Z,97.06
2022-09-18T03:36:50.207Z,97.37
2022-09-18T03:37:50.187Z,97.47
2022-09-18T03:38:50.191Z,97.57
2022-09-18T03:39:50.452Z,97.78
2022-09-18T03:40:50.314Z,97.88
2022-09-18T03:41:50.148Z,97.67
2022-09-18T03:42:50.154Z,97.78
2022-09-18T03:43:50.115Z,97.78
2022-09-18T03:44:50.117Z,97.98
2022-09-18T03:45:50.098Z,98.08
2022-09-18T03:46:50.211Z,97.88
2022-09-18T03:47:50.078Z,97.78
2022-09-18T03:48:50.237Z,97.78
2022-09-18T03:49:50.061Z,97.37
2022-09-18T03:50:50.052Z,97.37
2022-09-18T03:51:50.315Z,97.16
2022-09-18T03:52:51.509Z,97.16
2022-09-18T03:53:50.007Z,97.16
2022-09-18T03:54:50.003Z,97.16
2022-09-18T03:55:49.992Z,97.16
2022-09-18T03:56:49.998Z,97.16
2022-09-18T03:57:49.975Z,97.16
2022-09-18T03:58:50.267Z,97.06
2022-09-18T03:59:49.943Z,96.96
2022-09-18T04:00:49.947Z,96.86
2022-09-18T04:01:49.991Z,96.86
2022-09-18T04:02:49.954Z,96.96
2022-09-18T04:03:49.901Z,96.86
2022-09-18T04:04:49.939Z,96.96
2022-09-18T04:05:50.169Z,97.02
2022-09-18T04:06:49.892Z,97.12
2022-09-18T04:07:49.857Z,97.12
2022-09-18T04:08:49.865Z,97.12
2022-09-18T04:09:49.837Z,97.22
2022-09-18T04:10:49.874Z,97.33
2022-09-18T04:11:49.812Z,97.42
2022-09-18T04:12:50.143Z,97.42
2022-09-18T04:13:49.805Z,97.53
2022-09-18T04:14:49.785Z,97.53
2022-09-18T04:15:49.803Z,97.63
2022-09-18T04:16:49.798Z,97.63
2022-09-18T04:17:49.750Z,97.74
2022-09-18T04:18:49.750Z,97.74
2022-09-18T04:19:53.428Z,97.74
2022-09-18T04:20:49.732Z,97.83
2022-09-18T04:21:49.705Z,97.83
2022-09-18T04:22:49.739Z,97.83
2022-09-18T04:23:49.685Z,97.83
2022-09-18T04:24:49.710Z,97.94
2022-09-18T04:25:49.671Z,97.83
2022-09-18T04:26:49.973Z,97.94
2022-09-18T04:27:49.645Z,97.94
2022-09-18T04:28:49.687Z,98.04
2022-09-18T04:29:49.624Z,97.94
2022-09-18T04:30:49.623Z,97.94
2022-09-18T04:31:49.669Z,98.04
2022-09-18T04:32:49.593Z,98.04
2022-09-18T04:33:49.857Z,98.04
2022-09-18T04:34:49.619Z,98.14
2022-09-18T04:35:49.551Z,98.14
2022-09-18T04:36:49.553Z,98.14
2022-09-18T04:37:49.536Z,98.14
2022-09-18T04:38:49.530Z,98.14
2022-09-18T04:39:49.514Z,98.04
2022-09-18T04:40:49.893Z,98.04
2022-09-18T04:41:49.486Z,98.04
2022-09-18T04:42:49.485Z,98.04
2022-09-18T04:43:49.469Z,98.04
2022-09-18T04:44:49.459Z,97.99
2022-09-18T04:45:49.435Z,97.99
2022-09-18T04:46:49.508Z,97.99
2022-09-18T04:47:49.702Z,97.99
2022-09-18T04:48:49.535Z,97.99
2022-09-18T04:49:49.402Z,97.99
2022-09-18T04:50:49.401Z,97.89
2022-09-18T04:51:49.395Z,97.79
2022-09-18T04:52:49.418Z,97.69
2022-09-18T04:53:49.371Z,97.58
2022-09-18T04:54:49.635Z,97.58
2022-09-18T04:55:49.348Z,97.58
2022-09-18T04:56:49.332Z,97.69
2022-09-18T04:57:54.313Z,97.69
2022-09-18T04:58:49.342Z,97.69
2022-09-18T04:59:49.294Z,97.69
2022-09-18T05:00:49.334Z,97.69
2022-09-18T05:01:49.592Z,97.69
2022-09-18T05:02:49.269Z,97.69
2022-09-18T05:03:49.259Z,97.58
2022-09-18T05:04:49.284Z,97.58
2022-09-18T05:05:49.227Z,97.58
2022-09-18T05:06:49.229Z,97.49
2022-09-18T05:07:49.206Z,97.49
2022-09-18T05:08:49.504Z,97.28
2022-09-18T05:09:49.188Z,97.28
2022-09-18T05:10:49.243Z,97.28
2022-09-18T05:11:49.156Z,97.28
2022-09-18T05:12:49.167Z,97.38
2022-09-18T05:13:49.146Z,97.38
2022-09-18T05:14:49.139Z,97.49
2022-09-18T05:15:49.478Z,97.49
2022-09-18T05:16:49.179Z,97.58
2022-09-18T05:17:49.094Z,97.89
2022-09-18T05:18:49.178Z,97.89
2022-09-18T05:19:49.079Z,97.79
2022-09-18T05:20:49.067Z,97.89
2022-09-18T05:21:49.053Z,98.10
2022-09-18T05:22:49.368Z,98.10
2022-09-18T05:23:49.036Z,98.10
2022-09-18T05:24:49.032Z,98.30
2022-09-18T05:25:49.032Z,98.40
2022-09-18T05:26:49.013Z,98.61
2022-09-18T05:27:48.998Z,98.71
2022-09-18T05:28:49.027Z,98.91
2022-09-18T05:29:49.239Z,98.81
2022-09-18T05:30:48.963Z,98.91
2022-09-18T05:31:49.040Z,99.02
2022-09-18T05:32:48.947Z,99.02
2022-09-18T05:33:48.983Z,99.11
2022-09-18T05:34:48.974Z,99.22
2022-09-18T05:35:48.909Z,99.22
2022-09-18T05:36:49.209Z,99.32
2022-09-18T05:37:48.881Z,99.52
2022-09-18T05:38:48.884Z,99.52
2022-09-18T05:39:48.881Z,99.63
2022-09-18T05:40:48.940Z,99.63
2022-09-18T05:41:48.837Z,99.63
2022-09-18T05:42:48.839Z,99.84
2022-09-18T05:43:48.834Z,99.63
2022-09-18T05:44:48.824Z,99.84
2022-09-18T05:45:48.811Z,99.99
2022-09-18T05:46:48.906Z,99.99
2022-09-18T05:47:48.794Z,99.99
2022-09-18T05:48:48.823Z,99.99
2022-09-18T05:49:49.059Z,99.99
2022-09-18T05:50:48.792Z,99.99
2022-09-18T05:51:48.735Z,99.99
2022-09-18T05:52:48.800Z,99.99
2022-09-18T05:53:48.714Z,99.99
2022-09-18T05:54:48.713Z,99.99
2022-09-18T05:55:48.698Z,99.99
2022-09-18T05:56:48.977Z,99.99
2022-09-18T05:57:48.663Z,99.99
2022-09-18T05:58:48.699Z,99.99
2022-09-18T05:59:48.652Z,99.99
2022-09-18T06:00:48.653Z,99.99
2022-09-18T06:01:48.687Z,99.99
2022-09-18T06:02:48.712Z,99.99
2022-09-18T06:03:48.629Z,99.99
2022-09-18T06:04:48.659Z,99.99
2022-09-18T06:05:48.578Z,99.99
2022-09-18T06:06:48.581Z,99.99
2022-09-18T06:07:48.561Z,99.99
2022-09-18T06:08:48.555Z,99.99
2022-09-18T06:09:48.533Z,99.99
2022-09-18T06:10:48.586Z,99.99
2022-09-18T06:11:48.543Z,99.99
2022-09-18T06:12:48.518Z,99.99
2022-09-18T06:13:48.500Z,99.99
2022-09-18T06:14:48.791Z,99.99
2022-09-18T06:15:48.548Z,99.99
2022-09-18T06:16:48.540Z,99.99
2022-09-18T06:17:48.457Z,99.99
2022-09-18T06:18:48.514Z,99.99
2022-09-18T06:19:48.434Z,99.99
2022-09-18T06:20:48.425Z,99.99
2022-09-18T06:21:48.699Z,99.99
2022-09-18T06:22:48.715Z,99.99
2022-09-18T06:23:48.402Z,99.99
2022-09-18T06:24:48.385Z,99.99
2022-09-18T06:25:48.367Z,99.99
2022-09-18T06:26:48.363Z,99.99
2022-09-18T06:27:48.350Z,99.99
2022-09-18T06:28:48.663Z,99.99
2022-09-18T06:29:48.327Z,99.99
2022-09-18T06:30:48.315Z,99.99
2022-09-18T06:31:48.358Z,99.99
2022-09-18T06:32:48.283Z,99.99
2022-09-18T06:33:48.374Z,99.99
2022-09-18T06:34:48.308Z,99.99
2022-09-18T06:35:48.582Z,99.99
2022-09-18T06:36:48.261Z,99.99
2022-09-18T06:37:48.257Z,99.99
2022-09-18T06:38:48.228Z,99.99
2022-09-18T06:39:48.234Z,99.99
2022-09-18T06:40:48.247Z,99.99
2022-09-18T06:41:48.216Z,99.99
2022-09-18T06:42:48.505Z,99.99
2022-09-18T06:43:48.208Z,99.99
2022-09-18T06:44:48.161Z,99.99
2022-09-18T06:45:48.164Z,99.99
2022-09-18T06:46:48.238Z,99.99
2022-09-18T06:47:48.149Z,99.99
2022-09-18T06:48:48.151Z,99.99
2022-09-18T06:49:48.475Z,99.99
2022-09-18T06:50:48.099Z,99.99
2022-09-18T06:51:48.087Z,99.99
2022-09-18T06:52:48.159Z,99.99
2022-09-18T06:53:48.077Z,99.99
2022-09-18T06:54:48.073Z,99.99
2022-09-18T06:55:48.048Z,99.99
2022-09-18T06:56:48.318Z,99.99
2022-09-18T06:57:48.036Z,99.79
2022-09-18T06:58:48.082Z,99.89
2022-09-18T06:59:48.015Z,99.99
2022-09-18T07:00:48.086Z,99.99
2022-09-18T07:01:48.028Z,99.68
2022-09-18T07:02:47.964Z,99.38
2022-09-18T07:03:48.261Z,99.38
2022-09-18T07:04:47.991Z,99.07
2022-09-18T07:05:47.950Z,99.27
2022-09-18T07:06:47.935Z,99.48
2022-09-18T07:07:47.933Z,99.68
2022-09-18T07:08:47.910Z,99.48
2022-09-18T07:09:47.936Z,99.79
2022-09-18T07:10:48.204Z,99.48
2022-09-18T07:11:47.901Z,99.27
2022-09-18T07:12:47.865Z,99.18
2022-09-18T07:13:47.895Z,98.97
2022-09-18T07:14:47.855Z,98.61
2022-09-18T07:15:47.928Z,98.72
2022-09-18T07:16:47.852Z,98.82
2022-09-18T07:17:48.159Z,98.52
2022-09-18T07:18:47.800Z,98.52
2022-09-18T07:19:47.810Z,99.02
2022-09-18T07:20:47.776Z,99.02
2022-09-18T07:21:47.784Z,98.82
2022-09-18T07:22:47.794Z,98.82
2022-09-18T07:23:47.752Z,98.93
2022-09-18T07:24:47.730Z,98.72
2022-09-18T07:25:47.738Z,98.61
2022-09-18T07:26:47.726Z,98.21
2022-09-18T07:27:47.714Z,98.61
2022-09-18T07:28:47.732Z,98.52
2022-09-18T07:29:47.713Z,97.70
2022-09-18T07:30:47.955Z,98.00
2022-09-18T07:31:47.749Z,98.21
2022-09-18T07:32:47.668Z,98.52
2022-09-18T07:33:47.674Z,98.61
2022-09-18T07:34:47.678Z,98.93
2022-09-18T07:35:47.634Z,99.13
2022-09-18T07:36:47.618Z,98.52
2022-09-18T07:37:47.886Z,98.82
2022-09-18T07:38:47.599Z,99.13
2022-09-18T07:39:47.594Z,99.13
2022-09-18T07:40:47.598Z,98.72
2022-09-18T07:41:47.567Z,98.82
2022-09-18T07:42:47.587Z,98.77
2022-09-18T07:43:47.538Z,98.21
2022-09-18T07:44:47.817Z,97.80
2022-09-18T07:45:47.527Z,97.90
2022-09-18T07:46:47.617Z,97.80
2022-09-18T07:47:47.501Z,98.06
2022-09-18T07:48:47.495Z,97.75
2022-09-18T07:49:47.473Z,97.55
2022-09-18T07:50:47.485Z,97.65
2022-09-18T07:51:47.751Z,97.75
2022-09-18T07:52:47.503Z,98.16
2022-09-18T07:53:47.433Z,98.47
2022-09-18T07:54:47.430Z,98.47
2022-09-18T07:55:47.462Z,98.27
2022-09-18T07:56:47.393Z,98.16
2022-09-18T07:57:47.396Z,97.91
2022-09-18T07:58:47.719Z,97.30
2022-09-18T07:59:47.389Z,97.40
2022-09-18T08:00:47.353Z,96.79
2022-09-18T08:01:47.515Z,96.84
2022-09-18T08:02:47.570Z,96.33
2022-09-18T08:03:47.361Z,96.94
2022-09-18T08:04:47.386Z,97.65
2022-09-18T08:05:47.600Z,96.63
2022-09-18T08:06:47.292Z,97.14
2022-09-18T08:07:47.309Z,96.63
2022-09-18T08:08:49.046Z,96.53
2022-09-18T08:09:47.284Z,97.04
2022-09-18T08:10:47.279Z,97.45
2022-09-18T08:11:47.257Z,97.14
2022-09-18T08:12:47.502Z,97.34
2022-09-18T08:13:47.234Z,97.04
2022-09-18T08:14:47.215Z,96.73
2022-09-18T08:15:47.253Z,96.94
2022-09-18T08:16:47.224Z,97.14
2022-09-18T08:17:47.202Z,97.45
2022-09-18T08:18:47.186Z,97.55
2022-09-18T08:19:47.171Z,97.65
2022-09-18T08:20:47.161Z,97.45
2022-09-18T08:21:47.145Z,97.75
2022-09-18T08:22:47.163Z,97.86
2022-09-18T08:23:47.108Z,98.06
2022-09-18T08:24:47.088Z,98.16
2022-09-18T08:25:47.091Z,98.16
2022-09-18T08:26:47.084Z,98.57
2022-09-18T08:27:47.067Z,98.57
2022-09-18T08:28:47.093Z,98.68
2022-09-18T08:29:47.325Z,99.08
2022-09-18T08:30:47.061Z,99.08
2022-09-18T08:31:47.161Z,99.59
2022-09-18T08:32:46.997Z,99.99
2022-09-18T08:33:47.000Z,99.84
2022-09-18T08:34:47.042Z,99.99
2022-09-18T08:35:47.006Z,99.99
2022-09-18T08:36:46.989Z,99.99
2022-09-18T08:37:46.991Z,99.99
2022-09-18T08:38:47.021Z,99.99
2022-09-18T08:39:46.975Z,99.99
2022-09-18T08:40:46.971Z,99.99
2022-09-18T08:41:47.202Z,99.99
2022-09-18T08:42:46.945Z,99.99
2022-09-18T08:43:46.944Z,99.99
2022-09-18T08:44:46.891Z,99.99
2022-09-18T08:45:46.896Z,99.99
2022-09-18T08:46:46.981Z,99.99
2022-09-18T08:47:46.916Z,99.99
2022-09-18T08:48:47.144Z,99.99
2022-09-18T08:49:46.863Z,99.99
2022-09-18T08:50:46.830Z,99.99
2022-09-18T08:51:46.874Z,99.99
2022-09-18T08:52:46.857Z,99.99
2022-09-18T08:53:46.839Z,99.99
2022-09-18T08:54:46.794Z,99.99
2022-09-18T08:55:47.071Z,99.99
2022-09-18T08:56:46.805Z,99.99
2022-09-18T08:57:46.761Z,99.99
2022-09-18T08:58:46.808Z,99.99
2022-09-18T08:59:46.736Z,99.99
2022-09-18T09:00:46.752Z,99.99
2022-09-18T09:01:46.827Z,99.99
2022-09-18T09:02:47.027Z,99.99
2022-09-18T09:03:46.693Z,99.99
2022-09-18T09:04:46.764Z,99.99
2022-09-18T09:05:46.709Z,99.99
2022-09-18T09:06:46.663Z,99.99
2022-09-18T09:07:46.656Z,99.99
2022-09-18T09:08:46.648Z,99.99
2022-09-18T09:09:46.905Z,99.99
2022-09-18T09:10:46.681Z,99.99
2022-09-18T09:11:46.617Z,99.99
2022-09-18T09:12:46.592Z,99.99
2022-09-18T09:13:46.590Z,99.99
2022-09-18T09:14:57.165Z,99.99
2022-09-18T09:15:46.612Z,99.99
2022-09-18T09:16:46.906Z,99.99
2022-09-18T09:17:46.584Z,99.99
2022-09-18T09:18:46.523Z,99.99
2022-09-18T09:19:46.588Z,99.99
2022-09-18T09:20:46.599Z,99.99
2022-09-18T09:21:46.541Z,99.99
2022-09-18T09:22:46.597Z,99.99
2022-09-18T09:23:47.036Z,99.99
2022-09-18T09:24:46.453Z,99.99
2022-09-18T09:25:46.547Z,99.99
2022-09-18T09:26:46.465Z,99.99
2022-09-18T09:27:46.437Z,99.99
2022-09-18T09:28:46.516Z,99.99
2022-09-18T09:29:46.452Z,99.99
2022-09-18T09:30:46.693Z,99.99
2022-09-18T09:31:46.463Z,99.99
2022-09-18T09:32:46.408Z,99.99
2022-09-18T09:33:46.379Z,99.99
2022-09-18T09:34:46.394Z,99.99
2022-09-18T09:35:46.355Z,99.99
2022-09-18T09:36:46.351Z,99.99
2022-09-18T09:37:46.627Z,99.99
2022-09-18T09:38:46.314Z,99.99
2022-09-18T09:39:46.296Z,99.99
2022-09-18T09:40:46.388Z,99.99
2022-09-18T09:41:46.288Z,99.99
2022-09-18T09:42:46.308Z,99.99
2022-09-18T09:43:46.275Z,99.99
2022-09-18T09:44:46.588Z,99.99
2022-09-18T09:45:46.246Z,99.99
2022-09-18T09:46:46.298Z,99.99
2022-09-18T09:47:46.239Z,99.99
2022-09-18T09:48:46.247Z,99.99
2022-09-18T09:49:46.218Z,99.99
2022-09-18T09:50:46.205Z,99.99
2022-09-18T09:51:46.478Z,99.99
2022-09-18T09:52:46.208Z,99.99
2022-09-18T09:53:46.155Z,99.99
2022-09-18T09:54:46.167Z,99.38
2022-09-18T09:55:46.134Z,99.99
2022-09-18T09:56:46.134Z,99.99
2022-09-18T09:57:46.165Z,99.99
2022-09-18T09:58:46.554Z,99.99
2022-09-18T09:59:46.117Z,99.99
2022-09-18T10:00:46.162Z,99.99
2022-09-18T10:01:46.136Z,99.99
2022-09-18T10:02:46.087Z,99.99
2022-09-18T10:03:46.093Z,99.79
2022-09-18T10:04:46.096Z,99.99
2022-09-18T10:05:50.328Z,99.99
2022-09-18T10:06:46.059Z,99.99
2022-09-18T10:07:46.050Z,99.99
2022-09-18T10:08:45.994Z,99.99
2022-09-18T10:09:46.700Z,99.99
2022-09-18T10:10:46.058Z,99.99
2022-09-18T10:11:45.968Z,99.99
2022-09-18T10:12:46.273Z,99.74
2022-09-18T10:13:45.987Z,99.43
2022-09-18T10:14:45.945Z,98.31
2022-09-18T10:15:45.950Z,98.61
2022-09-18T10:16:47.116Z,98.93
2022-09-18T10:17:45.953Z,99.23
2022-09-18T10:18:45.915Z,99.43
2022-09-18T10:19:47.244Z,98.52
2022-09-18T10:20:45.877Z,98.93
2022-09-18T10:21:45.874Z,98.41
2022-09-18T10:22:45.862Z,98.61
2022-09-18T10:23:45.878Z,97.90
2022-09-18T10:24:47.029Z,97.96
2022-09-18T10:25:45.847Z,98.16
2022-09-18T10:26:46.115Z,98.77
2022-09-18T10:27:45.817Z,97.96
2022-09-18T10:28:45.850Z,98.16
2022-09-18T10:29:45.822Z,96.73
2022-09-18T10:30:45.763Z,96.94
2022-09-18T10:31:45.967Z,97.04
2022-09-18T10:32:45.764Z,97.96
2022-09-18T10:33:46.046Z,98.16
2022-09-18T10:34:45.838Z,97.34
2022-09-18T10:35:45.725Z,97.45
2022-09-18T10:36:45.818Z,97.45
2022-09-18T10:37:45.697Z,98.27
2022-09-18T10:38:45.696Z,98.36
2022-09-18T10:39:45.696Z,98.77
2022-09-18T10:40:46.015Z,98.36
2022-09-18T10:41:45.657Z,98.27
2022-09-18T10:42:45.672Z,98.88
2022-09-18T10:43:45.673Z,99.18
2022-09-18T10:44:45.618Z,98.47
2022-09-18T10:45:45.625Z,98.36
2022-09-18T10:46:45.753Z,98.68
2022-09-18T10:47:45.918Z,99.08
2022-09-18T10:48:45.576Z,98.77
2022-09-18T10:49:45.896Z,98.47
2022-09-18T10:50:45.697Z,98.47
2022-09-18T10:51:45.566Z,98.16
2022-09-18T10:52:45.620Z,98.22
2022-09-18T10:53:45.515Z,98.93
2022-09-18T10:54:45.830Z,99.24
2022-09-18T10:55:45.504Z,98.22
2022-09-18T10:56:45.509Z,97.91
2022-09-18T10:57:45.470Z,97.86
2022-09-18T10:58:45.541Z,98.16
2022-09-18T10:59:45.477Z,98.63
2022-09-18T11:00:45.479Z,98.52
2022-09-18T11:01:45.799Z,98.73
2022-09-18T11:02:45.455Z,98.27
2022-09-18T11:03:45.472Z,98.27
2022-09-18T11:04:45.489Z,98.47
2022-09-18T11:05:45.394Z,98.06
2022-09-18T11:06:45.406Z,98.36
2022-09-18T11:07:45.404Z,98.36
2022-09-18T11:08:45.685Z,99.08
2022-09-18T11:09:45.368Z,99.13
2022-09-18T11:10:45.397Z,98.93
2022-09-18T11:11:45.348Z,99.74
2022-09-18T11:12:45.331Z,99.95
2022-09-18T11:13:45.348Z,99.74
2022-09-18T11:14:45.364Z,99.74
2022-09-18T11:15:45.591Z,99.95
2022-09-18T11:16:45.511Z,99.74
2022-09-18T11:17:45.298Z,99.99
2022-09-18T11:18:45.369Z,99.99
2022-09-18T11:19:45.258Z,99.99
2022-09-18T11:20:45.321Z,99.99
2022-09-18T11:21:45.274Z,99.99
2022-09-18T11:22:45.588Z,99.99
2022-09-18T11:23:45.235Z,99.99
2022-09-18T11:24:47.438Z,99.99
2022-09-18T11:25:45.256Z,99.99
2022-09-18T11:26:45.197Z,99.99
2022-09-18T11:27:45.216Z,99.99
2022-09-18T11:28:45.315Z,99.99
2022-09-18T11:29:45.430Z,99.99
2022-09-18T11:30:45.179Z,99.99
2022-09-18T11:31:45.237Z,99.99
2022-09-18T11:32:45.160Z,99.99
2022-09-18T11:33:45.108Z,99.99
2022-09-18T11:34:45.156Z,99.99
2022-09-18T11:35:45.114Z,99.99
2022-09-18T11:36:45.396Z,99.99
2022-09-18T11:37:45.101Z,99.99
2022-09-18T11:38:45.060Z,99.99
2022-09-18T11:39:45.045Z,99.99
2022-09-18T11:40:45.368Z,99.99
2022-09-18T11:41:45.022Z,99.99
2022-09-18T11:42:45.029Z,99.99
2022-09-18T11:43:45.274Z,99.99
2022-09-18T11:44:45.010Z,99.99
2022-09-18T11:45:44.991Z,99.99
2022-09-18T11:46:45.119Z,99.99
2022-09-18T11:47:44.952Z,99.99
2022-09-18T11:48:45.071Z,99.99
2022-09-18T11:49:44.969Z,99.99
2022-09-18T11:50:45.279Z,99.99
2022-09-18T11:51:44.925Z,99.99
2022-09-18T11:52:44.949Z,99.99
2022-09-18T11:53:44.922Z,99.99
2022-09-18T11:54:44.874Z,99.99
2022-09-18T11:55:44.863Z,99.99
2022-09-18T11:56:44.871Z,99.99
2022-09-18T11:57:45.190Z,99.99
2022-09-18T11:58:44.886Z,99.99
2022-09-18T11:59:44.867Z,99.99
2022-09-18T12:00:44.832Z,99.99
2022-09-18T12:01:44.914Z,99.99
2022-09-18T12:02:44.984Z,99.99
2022-09-18T12:03:44.790Z,99.99
2022-09-18T12:04:45.175Z,99.99
2022-09-18T12:05:44.802Z,99.99
2022-09-18T12:06:44.757Z,99.99
2022-09-18T12:07:43.381Z,99.99
2022-09-18T12:08:43.405Z,99.99
2022-09-18T12:09:43.387Z,99.99
2022-09-18T12:10:43.376Z,99.99
2022-09-18T12:11:43.647Z,99.99
2022-09-18T12:12:43.328Z,99.99
2022-09-18T12:13:43.346Z,99.99
2022-09-18T12:14:43.338Z,99.99
2022-09-18T12:15:43.301Z,99.99
2022-09-18T12:16:45.796Z,99.99
2022-09-18T12:17:43.310Z,99.99
2022-09-18T12:18:43.640Z,99.99
2022-09-18T12:19:43.307Z,99.99
2022-09-18T12:20:43.252Z,99.99
2022-09-18T12:21:43.225Z,99.99
2022-09-18T12:22:43.278Z,99.99
2022-09-18T12:23:43.244Z,99.99
2022-09-18T12:24:43.251Z,99.99
2022-09-18T12:25:43.221Z,99.99
2022-09-18T12:26:43.197Z,99.99
2022-09-18T12:27:43.181Z,99.99
2022-09-18T12:28:43.245Z,99.99
2022-09-18T12:29:43.139Z,99.99
2022-09-18T12:30:43.158Z,99.99
2022-09-18T12:31:43.459Z,99.99
2022-09-18T12:32:43.118Z,99.99
2022-09-18T12:33:43.089Z,99.99
2022-09-18T12:34:43.177Z,99.99
2022-09-18T12:35:43.059Z,99.99
2022-09-18T12:36:43.077Z,99.99
2022-09-18T12:37:43.026Z,99.99
2022-09-18T12:38:43.034Z,99.99
2022-09-18T12:39:43.673Z,99.99
2022-09-18T12:40:43.721Z,99.99
2022-09-18T12:41:43.675Z,99.99
2022-09-18T12:42:43.678Z,99.99
2022-09-18T12:43:43.937Z,99.99
2022-09-18T12:44:43.683Z,99.99
2022-09-18T12:45:43.681Z,99.99
2022-09-18T12:46:43.742Z,99.99
2022-09-18T12:47:43.576Z,99.99
2022-09-18T12:48:43.629Z,99.99
2022-09-18T12:49:43.587Z,99.99
2022-09-18T12:50:43.581Z,99.99
2022-09-18T12:51:43.557Z,99.99
2022-09-18T12:53:06.267Z,99.99